Impacts TAF Board INFO
FOR SITUATIONAL AWARENESS. NOT TO BE USED FOR FLIGHT PLANNING PURPOSES.
IDs:

KMCO - Orlando Intl, FL, US

Issued at 1508 UTC 19 Jan 2018
Updated at 1527 UTC 19 Jan 2018
Potential Impact None Slight Moderate High
Time1453Z 19/16Z 19/17Z 19/18Z 19/19Z 19/20Z 19/21Z 19/22Z 19/23Z 20/00Z 20/01Z 20/02Z 20/03Z 20/04Z>>
Type OBS PRVL PRVL PRVL PRVL PRVL PRVL PRVL PRVL PRVL PRVL PRVL PRVL PRVL
VIS 10 >6 >6 >6 >6 >6 >6 >6 >6 >6 >6 >6 >6 >6
CIG 300 300 300 300 300 300 300 300 300 300 250 250 250 250
Cover BKN BKN BKN BKN BKN BKN BKN BKN BKN BKN BKN BKN BKN BKN
FltCat VFR VFR VFR VFR VFR VFR VFR VFR VFR VFR VFR VFR VFR VFR
WX -- -- -- -- -- -- -- -- -- -- -- -- -- --
WDir 30 30 30 30 30 30 30 30 30 30 60 60 60 60
WSpd 5 5 5 5 5 5 5 5 5 5 3 3 3 3
WGst -- -- -- -- -- -- -- -- -- -- -- -- -- --

Raw TAF
KMCO 191508Z 1915/2018 03005KT P6SM BKN300
  FM200100 06003KT P6SM BKN250
  FM201600 10005KT P6SM SCT040 BKN120


Raw METAR
KMCO 191453Z 03005KT 10SM BKN300 11/M04 A3037 RMK AO2 SLP282 T01111039 53012
KMCO 191353Z 01010KT 10SM BKN300 08/M04 A3036 RMK AO2 SLP279 T00781044
KMCO 191253Z 36006KT 10SM BKN300 04/M03 A3034 RMK AO2 SLP274 T00441028

METAR Board
Radar Display
Forecast Discussion

FOR SITUATIONAL AWARENESS. NOT TO BE USED FOR FLIGHT PLANNING PURPOSES.